createdAt,value
2022-10-09T00:00:41.447Z,18.00
2022-10-09T00:03:07.433Z,18.10
2022-10-09T00:05:33.362Z,18.10
2022-10-09T00:07:59.344Z,18.00
2022-10-09T00:10:25.322Z,18.00
2022-10-09T00:12:51.475Z,18.10
2022-10-09T00:15:17.576Z,18.10
2022-10-09T00:17:43.477Z,18.10
2022-10-09T00:20:09.447Z,18.20
2022-10-09T00:22:35.341Z,18.10
2022-10-09T00:25:01.263Z,18.10
2022-10-09T00:27:27.204Z,18.00
2022-10-09T00:29:53.122Z,17.60
2022-10-09T00:32:19.041Z,17.70
2022-10-09T00:34:44.950Z,17.70
2022-10-09T00:37:10.911Z,17.90
2022-10-09T00:39:36.834Z,17.80
2022-10-09T00:42:02.725Z,17.60
2022-10-09T00:44:28.967Z,17.40
2022-10-09T00:46:55.162Z,17.40
2022-10-09T00:49:21.348Z,17.60
2022-10-09T00:51:47.563Z,17.60
2022-10-09T00:54:13.778Z,17.70
2022-10-09T00:59:20.486Z,17.30
2022-10-09T02:48:23.096Z,17.10
2022-10-09T02:50:48.998Z,17.00
2022-10-09T02:53:14.933Z,17.10
2022-10-09T02:55:40.839Z,17.30
2022-10-09T02:58:06.756Z,17.20
2022-10-09T03:00:32.662Z,17.20
2022-10-09T03:02:58.657Z,17.40
2022-10-09T03:05:24.591Z,17.40
2022-10-09T03:07:50.518Z,17.50
2022-10-09T03:10:16.505Z,17.50
2022-10-09T03:12:42.404Z,17.40
2022-10-09T03:15:08.360Z,17.10
2022-10-09T03:17:34.285Z,17.00
2022-10-09T03:20:00.218Z,16.40
2022-10-09T03:22:26.131Z,16.40
2022-10-09T03:24:52.064Z,16.80
2022-10-09T03:27:17.979Z,17.10
2022-10-09T03:29:43.889Z,17.30
2022-10-09T03:32:09.899Z,17.40
2022-10-09T03:34:35.828Z,17.40
2022-10-09T03:37:01.748Z,17.30
2022-10-09T03:39:27.665Z,17.30
2022-10-09T03:41:53.619Z,17.40
2022-10-09T03:44:19.550Z,17.30
2022-10-09T03:46:45.492Z,17.00
2022-10-09T03:49:11.388Z,16.70
2022-10-09T03:51:37.314Z,17.10
2022-10-09T03:54:03.263Z,17.20
2022-10-09T03:56:29.187Z,17.20
2022-10-09T03:58:55.113Z,16.80
2022-10-09T04:01:21.111Z,17.10
2022-10-09T04:03:47.042Z,17.00
2022-10-09T04:06:12.968Z,17.20
2022-10-09T04:08:38.863Z,17.30
2022-10-09T04:11:04.810Z,17.30
2022-10-09T04:13:30.773Z,17.20
2022-10-09T04:15:56.754Z,17.20
2022-10-09T04:18:22.747Z,17.20
2022-10-09T04:20:48.650Z,17.30
2022-10-09T04:23:14.550Z,17.00
2022-10-09T04:25:40.491Z,16.80
2022-10-09T04:28:06.429Z,16.70
2022-10-09T04:30:32.395Z,16.90
2022-10-09T04:32:58.308Z,17.00
2022-10-09T04:35:24.262Z,17.00
2022-10-09T04:37:50.185Z,17.00
2022-10-09T04:40:16.091Z,16.80
2022-10-09T04:42:41.993Z,16.50
2022-10-09T04:45:08.285Z,16.10
2022-10-09T04:47:34.191Z,16.10
2022-10-09T04:50:00.132Z,16.00
2022-10-09T04:52:26.074Z,16.00
2022-10-09T04:54:51.990Z,16.30
2022-10-09T04:57:17.883Z,16.50
2022-10-09T04:59:43.818Z,16.70
2022-10-09T05:02:09.786Z,16.70
2022-10-09T05:04:35.725Z,16.80
2022-10-09T05:07:01.635Z,16.80
2022-10-09T05:09:27.569Z,16.80
2022-10-09T05:11:53.479Z,16.70
2022-10-09T05:14:19.387Z,16.50
2022-10-09T05:17:12.074Z,16.60
2022-10-09T05:19:31.215Z,16.60
2022-10-09T05:21:57.187Z,16.50
2022-10-09T05:24:23.092Z,16.40
2022-10-09T05:26:49.310Z,16.50
2022-10-09T05:29:15.539Z,16.70
2022-10-09T05:31:44.676Z,16.70
2022-10-09T05:34:14.755Z,16.70
2022-10-09T05:36:40.964Z,16.60
2022-10-09T05:39:07.209Z,16.50
2022-10-09T05:41:33.457Z,16.20
2022-10-09T07:44:39.386Z,17.50
2022-10-09T07:47:05.277Z,17.70
2022-10-09T07:49:31.218Z,17.90
2022-10-09T07:51:57.136Z,17.90
2022-10-09T07:54:23.033Z,17.90
2022-10-09T07:56:48.959Z,17.90
2022-10-09T07:59:14.857Z,17.50
2022-10-09T08:01:40.857Z,17.70
2022-10-09T08:04:06.818Z,18.00
2022-10-09T08:06:32.750Z,18.10
2022-10-09T08:08:58.689Z,18.00
2022-10-09T08:11:24.596Z,17.60
2022-10-09T08:13:50.567Z,17.20
2022-10-09T08:16:16.569Z,16.90
2022-10-09T08:18:42.582Z,16.70
2022-10-09T08:21:10.798Z,16.80
2022-10-09T08:23:36.718Z,16.80
2022-10-09T08:26:02.621Z,16.60
2022-10-09T08:28:28.565Z,16.60
2022-10-09T08:30:54.620Z,17.20
2022-10-09T08:33:20.606Z,17.50
2022-10-09T08:35:46.571Z,17.60
2022-10-09T08:38:25.572Z,17.10
2022-10-09T08:40:58.314Z,17.20
2022-10-09T08:43:24.352Z,17.20
2022-10-09T08:45:50.254Z,17.20
2022-10-09T08:48:16.169Z,16.70
2022-10-09T08:50:42.072Z,16.60
2022-10-09T08:53:08.027Z,16.60
2022-10-09T08:55:33.951Z,16.90
2022-10-09T08:57:59.881Z,16.90
2022-10-09T09:00:26.130Z,16.60
2022-10-09T09:02:52.529Z,16.80
2022-10-09T09:05:18.889Z,16.90
2022-10-09T09:07:44.799Z,17.20
2022-10-09T09:10:10.726Z,17.20
2022-10-09T09:12:36.640Z,17.30
2022-10-09T09:15:02.593Z,17.40
2022-10-09T09:17:28.529Z,17.10
2022-10-09T09:19:54.457Z,16.80
2022-10-09T09:22:20.375Z,16.90
2022-10-09T09:24:46.322Z,16.70
2022-10-09T09:27:12.244Z,16.40
2022-10-09T09:29:38.169Z,16.30
2022-10-09T09:32:04.082Z,16.40
2022-10-09T09:34:30.005Z,16.70
2022-10-09T09:36:55.936Z,16.90
2022-10-09T09:42:07.731Z,16.60
2022-10-09T09:44:33.677Z,16.30
2022-10-09T09:46:59.611Z,16.60
2022-10-09T09:49:25.573Z,16.70
2022-10-09T09:51:51.470Z,16.70
2022-10-09T09:54:17.480Z,16.40
2022-10-09T09:57:10.555Z,16.30
2022-10-09T09:59:29.340Z,15.90
2022-10-09T10:01:55.260Z,16.20
2022-10-09T10:04:21.249Z,16.30
2022-10-09T10:06:47.185Z,16.30
2022-10-09T10:09:13.103Z,16.50
2022-10-09T10:11:38.993Z,16.60
2022-10-09T10:14:05.073Z,16.60
2022-10-09T10:16:31.054Z,15.80
2022-10-09T10:18:57.037Z,16.10
2022-10-09T10:21:23.259Z,15.90
2022-10-09T10:23:49.486Z,15.80
2022-10-09T10:28:56.224Z,16.30
2022-10-09T10:31:22.439Z,16.30
2022-10-09T12:44:54.472Z,17.20
2022-10-09T12:47:20.435Z,17.60
2022-10-09T12:49:46.335Z,17.60
2022-10-09T12:52:12.300Z,17.70
2022-10-09T12:54:38.214Z,17.90
2022-10-09T12:57:04.132Z,18.00
2022-10-09T12:59:30.053Z,18.10
2022-10-09T13:01:56.098Z,18.20
2022-10-09T13:04:22.065Z,18.10
2022-10-09T13:06:47.999Z,17.70
2022-10-09T13:09:13.902Z,17.60
2022-10-09T13:11:39.832Z,17.60
2022-10-09T13:14:05.749Z,17.70
2022-10-09T13:16:31.725Z,18.00
2022-10-09T13:18:57.652Z,18.00
2022-10-09T13:21:23.542Z,17.90
2022-10-09T13:26:33.646Z,18.10
2022-10-09T13:28:59.570Z,18.20
2022-10-09T13:31:25.469Z,18.10
2022-10-09T13:33:51.406Z,18.10
2022-10-09T13:36:17.399Z,17.80
2022-10-09T13:38:43.296Z,17.90
2022-10-09T13:41:09.223Z,17.90
2022-10-09T13:43:35.125Z,18.00
2022-10-09T13:46:01.106Z,18.00
2022-10-09T13:48:27.114Z,17.30
2022-10-09T13:50:53.034Z,17.20
2022-10-09T13:53:18.930Z,17.30
2022-10-09T13:55:45.891Z,17.30
2022-10-09T13:58:11.798Z,17.50
2022-10-09T14:00:37.723Z,17.50
2022-10-09T14:03:03.654Z,17.60
2022-10-09T14:05:29.608Z,17.50
2022-10-09T14:07:55.845Z,17.30
2022-10-09T14:10:23.961Z,17.30
2022-10-09T14:12:50.300Z,17.40
2022-10-09T14:15:16.414Z,17.50
2022-10-09T14:17:42.327Z,17.70
2022-10-09T14:20:08.252Z,17.70
2022-10-09T14:22:34.227Z,18.00
2022-10-09T14:25:00.138Z,17.70
2022-10-09T14:27:26.110Z,17.70
2022-10-09T14:29:54.157Z,17.70
2022-10-09T14:32:22.613Z,17.50
2022-10-09T14:34:48.517Z,17.60
2022-10-09T14:37:29.916Z,17.60
2022-10-09T14:40:00.357Z,17.50
2022-10-09T14:42:26.284Z,17.70
2022-10-09T14:44:52.232Z,17.80
2022-10-09T14:47:18.130Z,17.70
2022-10-09T14:49:44.053Z,17.90
2022-10-09T14:52:09.968Z,17.90
2022-10-09T14:54:35.907Z,17.90
2022-10-09T14:57:01.858Z,17.90
2022-10-09T14:59:27.762Z,17.60
2022-10-09T15:01:53.683Z,17.70
2022-10-09T15:04:19.709Z,17.70
2022-10-09T15:06:45.689Z,17.50
2022-10-09T15:09:11.677Z,17.40
2022-10-09T15:11:37.611Z,17.70
2022-10-09T15:14:03.587Z,17.60
2022-10-09T15:16:29.579Z,17.40
2022-10-09T15:18:55.501Z,17.50
2022-10-09T15:21:21.724Z,17.50
2022-10-09T15:23:47.942Z,17.20
2022-10-09T15:26:14.151Z,17.50
2022-10-09T15:28:40.426Z,17.70
2022-10-09T15:31:06.726Z,17.70
2022-10-09T15:33:32.967Z,17.80
2022-10-09T15:35:59.024Z,17.80
2022-10-09T17:36:34.525Z,16.60
2022-10-09T17:39:00.457Z,16.60
2022-10-09T17:41:26.375Z,16.70
2022-10-09T17:43:52.293Z,16.70
2022-10-09T17:46:18.245Z,16.70
2022-10-09T17:48:44.169Z,16.60
2022-10-09T17:51:10.087Z,16.50
2022-10-09T17:53:36.021Z,16.50
2022-10-09T17:56:01.942Z,16.50
2022-10-09T17:58:27.883Z,16.40
2022-10-09T18:00:53.831Z,16.20
2022-10-09T18:03:19.774Z,16.20
2022-10-09T18:05:45.714Z,16.00
2022-10-09T18:08:11.693Z,16.00
2022-10-09T18:10:37.631Z,16.00
2022-10-09T18:13:03.550Z,16.00
2022-10-09T18:15:29.478Z,15.90
2022-10-09T18:17:55.424Z,15.50
2022-10-09T18:20:21.367Z,15.40
2022-10-09T18:22:47.306Z,15.40
2022-10-09T18:25:13.244Z,15.50
2022-10-09T18:27:39.176Z,15.30
2022-10-09T18:30:05.132Z,15.40
2022-10-09T18:32:31.122Z,15.50
2022-10-09T18:34:57.043Z,15.50
2022-10-09T18:37:22.982Z,15.50
2022-10-09T18:39:48.907Z,15.50
2022-10-09T18:42:14.909Z,15.40
2022-10-09T18:44:40.879Z,15.40
2022-10-09T18:47:06.845Z,15.20
2022-10-09T18:49:32.755Z,14.90
2022-10-09T18:51:58.796Z,15.00
2022-10-09T18:54:24.731Z,15.10
2022-10-09T18:56:50.699Z,15.10
2022-10-09T18:59:16.668Z,15.00
2022-10-09T19:01:42.610Z,15.10
2022-10-09T19:04:08.560Z,15.10
2022-10-09T19:06:34.479Z,15.00
2022-10-09T19:09:00.390Z,14.90
2022-10-09T19:11:26.310Z,14.90
2022-10-09T19:13:52.216Z,14.90
2022-10-09T19:16:18.155Z,14.90
2022-10-09T19:18:44.053Z,14.80
2022-10-09T19:21:10.026Z,14.20
2022-10-09T19:23:35.953Z,14.40
2022-10-09T19:26:01.962Z,14.30
2022-10-09T19:28:27.996Z,14.00
2022-10-09T19:30:53.938Z,13.70
2022-10-09T19:33:19.887Z,13.50
2022-10-09T19:35:45.789Z,13.70
2022-10-09T19:38:11.706Z,14.00
2022-10-09T19:40:37.630Z,13.90
2022-10-09T19:43:03.547Z,14.00
2022-10-09T19:45:29.483Z,14.30
2022-10-09T19:47:55.649Z,14.40
2022-10-09T19:50:21.873Z,14.30
2022-10-09T19:52:47.827Z,14.00
2022-10-09T19:55:13.718Z,14.10
2022-10-09T19:57:39.974Z,14.20
2022-10-09T20:00:05.893Z,14.10
2022-10-09T20:02:31.821Z,14.00
2022-10-09T20:04:57.743Z,14.10
2022-10-09T20:07:23.672Z,14.00
2022-10-09T20:09:49.900Z,14.10
2022-10-09T20:12:16.157Z,14.10
2022-10-09T20:14:42.378Z,14.10
2022-10-09T20:17:08.583Z,14.10
2022-10-09T20:19:34.823Z,14.10
2022-10-09T22:27:48.921Z,13.20
2022-10-09T22:30:14.838Z,13.20
2022-10-09T22:32:40.762Z,13.20
2022-10-09T22:35:06.673Z,13.00
2022-10-09T22:37:32.638Z,12.90
2022-10-09T22:39:58.540Z,13.10
2022-10-09T22:42:24.484Z,13.20
2022-10-09T22:44:50.398Z,13.20
2022-10-09T22:47:16.290Z,13.30
2022-10-09T22:49:42.185Z,13.10
2022-10-09T22:52:08.128Z,13.00
2022-10-09T22:54:34.039Z,13.10
2022-10-09T22:57:00.105Z,12.90
2022-10-09T22:59:26.022Z,12.90
2022-10-09T23:01:51.952Z,13.00
2022-10-09T23:04:17.992Z,12.90
2022-10-09T23:06:43.895Z,12.80
2022-10-09T23:09:09.786Z,13.00
2022-10-09T23:11:35.760Z,12.80
2022-10-09T23:14:01.663Z,12.70
2022-10-09T23:16:27.582Z,12.70
2022-10-09T23:18:53.496Z,13.00
2022-10-09T23:21:19.414Z,12.90
2022-10-09T23:23:45.322Z,12.80
2022-10-09T23:26:11.248Z,12.80
2022-10-09T23:28:37.228Z,13.10
2022-10-09T23:31:03.181Z,13.30
2022-10-09T23:33:29.068Z,13.30
2022-10-09T23:35:54.980Z,13.20
2022-10-09T23:38:20.895Z,13.20
2022-10-09T23:40:46.811Z,13.10
2022-10-09T23:43:12.726Z,13.20
2022-10-09T23:45:38.691Z,12.90
2022-10-09T23:48:04.614Z,12.60
2022-10-09T23:50:30.512Z,12.80
2022-10-09T23:52:56.437Z,13.00
2022-10-09T23:55:22.368Z,13.10
2022-10-09T23:57:48.285Z,13.10
